Terminal Aerodrome Forecast
Issued by NWS

Home | Current Version | Previous Version | Text Only | Print | Product List | Glossary On
Versions: 1 2 3 4 5 6 7 8 9 10 11 12 13 14
383
FTUS43 KAPX 261125
TAFMBL
TAF
KMBL 261125Z 2612/2712 00000KT P6SM SCT080
     FM261800 22006KT P6SM FEW040 SCT200
     FM262300 VRB03KT P6SM SCT025 BKN110
     FM270000 VRB03KT P6SM VCSH SCT020 BKN100
     FM270600 30005KT P6SM BKN045=

USA.gov is the U.S. government's official web portal to all federal, state and local government web resources and services.